Main page
METAR-TAF:

METAR-TAF

Airports :

George Best Belfast City Airport

Belfast City, Northern Ireland

latitude: 54-36N, longitude: 005-53W, elevation: 5 m

Current weather observation

The report was made 36 minutes ago, at 05:20 UTC
Wind 14 kt from the South/Southwest
Temperature 3°C
Humidity 87%
Pressure 993 hPa
Visibility 10 km or more

METAR: EGAC 270520Z AUTO 21014KT 9999 FEW032/// 03/01 Q0993

Time: 05:56 (05:56 UTC)

Forecast

The report was made 13 hours and 0 minutes ago, at 16:56 UTC
Forecast valid from 26 at 18 UTC to 26 at 22 UTC
Wind 12 kt from the South
Visibility 10 km or more
Few clouds at a height of 2000 ft
Probability 30% :
Temporary
from 26 at 21 UTC to 26 at 22 UTC
Wind 15 kt from the South with gusts up to 27 kt
Visibility: 7000 m
rain showers

TAF: EGAC 261656Z 2618/2622 19012KT 9999 FEW020 PROB30 TEMPO 2621/2622 18015G27KT 7000 SHRA

Weather observations and forecasts of more than 4000 airports (METAR and TAF reports).

The available stations are represented by yellow and red dots on the map.

Hover mouse over dot to see the name of the station.

Then click to see weather observations and forecasts.

To change the map : click on the green buttons with a black cross to zoom in, on the green button with a dash to zoom out, or on the green arrows for adjacent maps.


METAR-TAF: